• Join FlightAware (Why Join?)
  • Login
  • US Flag 
05:43PM EST


 

Airport Tracker/Info


-or-


 

Live Flight TrackerFlight Track Log ✈ FSR411 ✈ 13-Feb-2014 ✈ KOSU - KCMI

Flight Track Log - Related Links

Times and Time Zones

All times are in EST time to prevent confusion due to time zone crossing. See the FSR411 flight status page for this flight to view local times or setup timezone preferences in your user account.

Time Position Orientation Groundspeed Altitude Reporting Facility
EST Latitude Longitude Course Direction KTS MPH feet Rate Location/Type
06:08PM 40.0758 -83.0831 269° West 156 180 1,100  Level Indianapolis Center
06:08PM 40.0756 -83.1103 269° West 167 192 2,400 1,740 Climbing Indianapolis Center
06:09PM 40.0731 -83.1456 265° West 184 212 2,800 2,640 Climbing Indianapolis Center
06:10PM 40.0703 -83.2231 267° West 219 252 6,700 4,080 Climbing Indianapolis Center
06:11PM 40.0731 -83.3389 272° West 262 302 11,300 3,600 Climbing Indianapolis Center
06:12PM 40.0733 -83.4572 270° West 326 375 14,200 3,420 Climbing Indianapolis Center
06:13PM 40.0750 -83.5869 271° West 356 410 18,400 3,840 Climbing Indianapolis Center
06:14PM 40.0758 -83.7189 271° West 366 421 22,100 2,460 Climbing Indianapolis Center
06:15PM 40.0783 -83.8617 271° West 386 444 23,600 900 Climbing Indianapolis Center
06:16PM 40.0792 -84.0031 270° West 394 453 24,000 180 Climbing Indianapolis Center
06:17PM 40.0808 -84.1761 271° West 398 458 24,000 -60 Level Indianapolis Center
06:18PM 40.0828 -84.3217 271° West 403 464 23,900  Descending Indianapolis Center
06:19PM 40.0828 -84.4658 270° West 399 459 24,000  Climbing Indianapolis Center
06:20PM 40.0836 -84.6083 270° West 395 455 24,000  Level Indianapolis Center
06:21PM 40.0831 -84.7508 270° West 395 455 24,000  Level Indianapolis Center
06:22PM 40.0828 -84.9069 270° West 387 445 24,000  Level Indianapolis Center
06:23PM 40.0842 -85.0475 271° West 389 448 24,000  Level Indianapolis Center
06:24PM 40.0839 -85.1847 270° West 384 442 24,000  Level Indianapolis Center
06:25PM 40.0831 -85.3225 270° West 382 440 24,000  Level Indianapolis Center
06:26PM 40.0833 -85.4617 270° West 384 442 24,000  Level Indianapolis Center
06:27PM 40.0831 -85.6253 270° West 381 438 24,000  Level Indianapolis Center
06:28PM 40.0825 -85.7608 270° West 378 435 24,000  Level Indianapolis Center
06:29PM 40.0814 -85.8967 269° West 378 435 24,000  Level Indianapolis Center
06:30PM 40.0794 -86.0311 269° West 376 433 24,000  Level Indianapolis Center
06:31PM 40.0778 -86.1656 269° West 376 433 24,000  Level Indianapolis Center
06:32PM 40.0769 -86.2994 270° West 375 432 24,000  Level Indianapolis Center
06:33PM 40.0750 -86.4600 269° West 374 430 24,000  Level Indianapolis Center
06:34PM 40.0733 -86.5953 269° West 376 433 24,000 -300 Level Indianapolis Center
06:35PM 40.0714 -86.7300 269° West 376 433 23,500 -1,260 Descending Indianapolis Center
06:36PM 40.0694 -86.8675 269° West 380 437 21,500 -1,860 Descending Indianapolis Center
06:37PM 40.0669 -87.0017 269° West 376 433 19,700 -1,860 Descending Indianapolis Center
06:39PM 40.0653 -87.1333 269° West 370 426 17,700 -1,980 Descending Indianapolis Center
06:40PM 40.0614 -87.2875 268° West 360 414 15,700 -1,740 Descending Indianapolis Center
06:41PM 40.0603 -87.4133 269° West 353 406 14,200 -1,500 Descending Indianapolis Center
06:42PM 40.0617 -87.5342 271° West 342 394 12,700 -1,500 Descending Indianapolis Center
06:43PM 40.0714 -87.6514 276° West 331 381 11,200 -840 Descending Indianapolis Center
06:44PM 40.0786 -87.7639 275° West 320 368 11,000 -1,020 Descending Indianapolis Center
06:45PM 40.0844 -87.8503 275° West 255 293 9,200 -1,860 Descending Indianapolis Center
06:46PM 40.0900 -87.9300 275° West 231 266 7,200 -1,980 Descending Indianapolis Center
06:47PM 40.0886 -88.0453 269° West 232 267 4,600 -1,320 Descending Chicago Center
06:48PM 40.0842 -88.1278 266° West 232 267 4,200 -420 Descending Chicago Center